sensor_id;sensor_type;location;lat;lon;timestamp;P1;P2;P0
61592;PMS5003;70568;51.378;-1.342;2023-07-29T00:01:46;7;5;
61592;PMS5003;70568;51.378;-1.342;2023-07-29T00:04:12;4;4;
61592;PMS5003;70568;51.378;-1.342;2023-07-29T00:06:39;5;4;
61592;PMS5003;70568;51.378;-1.342;2023-07-29T00:09:05;5;5;
61592;PMS5003;70568;51.378;-1.342;2023-07-29T00:11:32;5;4;
61592;PMS5003;70568;51.378;-1.342;2023-07-29T00:13:59;5;4;
61592;PMS5003;70568;51.378;-1.342;2023-07-29T00:16:26;5;4;
61592;PMS5003;70568;51.378;-1.342;2023-07-29T00:18:52;5;5;
61592;PMS5003;70568;51.378;-1.342;2023-07-29T00:21:20;6;6;
61592;PMS5003;70568;51.378;-1.342;2023-07-29T00:23:47;5;5;
61592;PMS5003;70568;51.378;-1.342;2023-07-29T00:26:13;6;6;
61592;PMS5003;70568;51.378;-1.342;2023-07-29T00:28:40;5;5;
61592;PMS5003;70568;51.378;-1.342;2023-07-29T00:31:06;5;4;
61592;PMS5003;70568;51.378;-1.342;2023-07-29T00:33:32;6;5;
61592;PMS5003;70568;51.378;-1.342;2023-07-29T00:35:59;4;3;
61592;PMS5003;70568;51.378;-1.342;2023-07-29T00:38:25;5;5;
61592;PMS5003;70568;51.378;-1.342;2023-07-29T00:40:52;4;4;
61592;PMS5003;70568;51.378;-1.342;2023-07-29T00:43:19;7;6;
61592;PMS5003;70568;51.378;-1.342;2023-07-29T00:45:45;7;7;
61592;PMS5003;70568;51.378;-1.342;2023-07-29T00:48:14;7;6;
61592;PMS5003;70568;51.378;-1.342;2023-07-29T00:50:41;6;6;
61592;PMS5003;70568;51.378;-1.342;2023-07-29T00:53:09;5;5;
61592;PMS5003;70568;51.378;-1.342;2023-07-29T00:55:36;5;4;
61592;PMS5003;70568;51.378;-1.342;2023-07-29T00:58:03;6;6;
61592;PMS5003;70568;51.378;-1.342;2023-07-29T01:00:31;8;6;
61592;PMS5003;70568;51.378;-1.342;2023-07-29T01:02:57;8;7;
61592;PMS5003;70568;51.378;-1.342;2023-07-29T01:05:23;7;7;
61592;PMS5003;70568;51.378;-1.342;2023-07-29T01:07:58;6;6;
61592;PMS5003;70568;51.378;-1.342;2023-07-29T01:10:37;5;5;
61592;PMS5003;70568;51.378;-1.342;2023-07-29T01:13:13;7;6;
61592;PMS5003;70568;51.378;-1.342;2023-07-29T01:15:48;10;9;
61592;PMS5003;70568;51.378;-1.342;2023-07-29T01:18:22;4;4;
61592;PMS5003;70568;51.378;-1.342;2023-07-29T01:20:50;5;4;
61592;PMS5003;70568;51.378;-1.342;2023-07-29T01:23:23;8;7;
61592;PMS5003;70568;51.378;-1.342;2023-07-29T01:25:50;6;6;
61592;PMS5003;70568;51.378;-1.342;2023-07-29T01:28:16;5;5;
61592;PMS5003;70568;51.378;-1.342;2023-07-29T01:30:44;7;6;
61592;PMS5003;70568;51.378;-1.342;2023-07-29T01:33:14;5;5;
61592;PMS5003;70568;51.378;-1.342;2023-07-29T01:35:46;6;6;
61592;PMS5003;70568;51.378;-1.342;2023-07-29T01:38:17;7;7;
61592;PMS5003;70568;51.378;-1.342;2023-07-29T01:40:46;5;5;
61592;PMS5003;70568;51.378;-1.342;2023-07-29T01:43:14;5;5;
61592;PMS5003;70568;51.378;-1.342;2023-07-29T01:45:41;4;4;
61592;PMS5003;70568;51.378;-1.342;2023-07-29T01:48:08;6;6;
61592;PMS5003;70568;51.378;-1.342;2023-07-29T01:50:36;5;5;
61592;PMS5003;70568;51.378;-1.342;2023-07-29T01:53:02;9;7;
61592;PMS5003;70568;51.378;-1.342;2023-07-29T01:55:29;8;7;
61592;PMS5003;70568;51.378;-1.342;2023-07-29T01:57:55;6;6;
61592;PMS5003;70568;51.378;-1.342;2023-07-29T02:00:22;6;6;
61592;PMS5003;70568;51.378;-1.342;2023-07-29T02:02:49;6;6;
61592;PMS5003;70568;51.378;-1.342;2023-07-29T02:05:15;6;6;
61592;PMS5003;70568;51.378;-1.342;2023-07-29T02:07:42;6;6;
61592;PMS5003;70568;51.378;-1.342;2023-07-29T02:10:09;6;6;
61592;PMS5003;70568;51.378;-1.342;2023-07-29T02:12:36;8;8;
61592;PMS5003;70568;51.378;-1.342;2023-07-29T02:15:03;5;5;
61592;PMS5003;70568;51.378;-1.342;2023-07-29T02:17:30;8;8;
61592;PMS5003;70568;51.378;-1.342;2023-07-29T02:19:57;6;6;
61592;PMS5003;70568;51.378;-1.342;2023-07-29T02:22:24;11;10;
61592;PMS5003;70568;51.378;-1.342;2023-07-29T02:24:50;7;6;
61592;PMS5003;70568;51.378;-1.342;2023-07-29T02:27:17;7;6;
61592;PMS5003;70568;51.378;-1.342;2023-07-29T02:29:43;5;5;
61592;PMS5003;70568;51.378;-1.342;2023-07-29T02:32:10;7;5;
61592;PMS5003;70568;51.378;-1.342;2023-07-29T02:34:37;6;5;
61592;PMS5003;70568;51.378;-1.342;2023-07-29T02:37:04;5;4;
61592;PMS5003;70568;51.378;-1.342;2023-07-29T02:39:30;6;5;
61592;PMS5003;70568;51.378;-1.342;2023-07-29T02:41:57;4;4;
61592;PMS5003;70568;51.378;-1.342;2023-07-29T02:44:24;5;5;
61592;PMS5003;70568;51.378;-1.342;2023-07-29T02:46:51;10;8;
61592;PMS5003;70568;51.378;-1.342;2023-07-29T02:49:18;7;6;
61592;PMS5003;70568;51.378;-1.342;2023-07-29T02:51:44;7;7;
61592;PMS5003;70568;51.378;-1.342;2023-07-29T02:54:11;8;6;
61592;PMS5003;70568;51.378;-1.342;2023-07-29T02:56:38;5;5;
61592;PMS5003;70568;51.378;-1.342;2023-07-29T02:59:04;4;4;
61592;PMS5003;70568;51.378;-1.342;2023-07-29T03:01:30;7;6;
61592;PMS5003;70568;51.378;-1.342;2023-07-29T03:03:58;8;7;
61592;PMS5003;70568;51.378;-1.342;2023-07-29T03:06:25;5;5;
61592;PMS5003;70568;51.378;-1.342;2023-07-29T03:08:51;8;7;
61592;PMS5003;70568;51.378;-1.342;2023-07-29T03:11:18;10;8;
61592;PMS5003;70568;51.378;-1.342;2023-07-29T03:13:44;7;6;
61592;PMS5003;70568;51.378;-1.342;2023-07-29T03:16:11;5;4;
61592;PMS5003;70568;51.378;-1.342;2023-07-29T03:18:40;7;7;
61592;PMS5003;70568;51.378;-1.342;2023-07-29T03:21:08;7;5;
61592;PMS5003;70568;51.378;-1.342;2023-07-29T03:23:36;6;6;
61592;PMS5003;70568;51.378;-1.342;2023-07-29T03:26:04;7;6;
61592;PMS5003;70568;51.378;-1.342;2023-07-29T03:28:32;5;5;
61592;PMS5003;70568;51.378;-1.342;2023-07-29T03:30:59;8;8;
61592;PMS5003;70568;51.378;-1.342;2023-07-29T03:33:26;5;5;
61592;PMS5003;70568;51.378;-1.342;2023-07-29T03:35:53;8;7;
61592;PMS5003;70568;51.378;-1.342;2023-07-29T03:38:19;5;5;
61592;PMS5003;70568;51.378;-1.342;2023-07-29T03:40:46;6;6;
61592;PMS5003;70568;51.378;-1.342;2023-07-29T03:43:13;6;6;
61592;PMS5003;70568;51.378;-1.342;2023-07-29T03:45:39;9;8;
61592;PMS5003;70568;51.378;-1.342;2023-07-29T03:48:07;7;6;
61592;PMS5003;70568;51.378;-1.342;2023-07-29T03:50:34;7;6;
61592;PMS5003;70568;51.378;-1.342;2023-07-29T03:53:02;6;5;
61592;PMS5003;70568;51.378;-1.342;2023-07-29T03:55:30;6;6;
61592;PMS5003;70568;51.378;-1.342;2023-07-29T03:57:57;5;5;
61592;PMS5003;70568;51.378;-1.342;2023-07-29T04:00:24;8;6;
61592;PMS5003;70568;51.378;-1.342;2023-07-29T04:02:51;10;10;
61592;PMS5003;70568;51.378;-1.342;2023-07-29T04:05:19;4;4;
61592;PMS5003;70568;51.378;-1.342;2023-07-29T04:07:46;7;7;
61592;PMS5003;70568;51.378;-1.342;2023-07-29T04:10:12;7;5;
61592;PMS5003;70568;51.378;-1.342;2023-07-29T04:12:39;9;9;
61592;PMS5003;70568;51.378;-1.342;2023-07-29T04:15:06;8;7;
61592;PMS5003;70568;51.378;-1.342;2023-07-29T04:17:34;6;6;
61592;PMS5003;70568;51.378;-1.342;2023-07-29T04:20:00;6;5;
61592;PMS5003;70568;51.378;-1.342;2023-07-29T04:22:26;7;7;
61592;PMS5003;70568;51.378;-1.342;2023-07-29T04:24:53;4;4;
61592;PMS5003;70568;51.378;-1.342;2023-07-29T04:27:19;6;6;
61592;PMS5003;70568;51.378;-1.342;2023-07-29T04:29:46;8;7;
61592;PMS5003;70568;51.378;-1.342;2023-07-29T04:32:12;8;7;
61592;PMS5003;70568;51.378;-1.342;2023-07-29T04:34:38;7;5;
61592;PMS5003;70568;51.378;-1.342;2023-07-29T04:37:05;6;5;
61592;PMS5003;70568;51.378;-1.342;2023-07-29T04:39:32;5;5;
61592;PMS5003;70568;51.378;-1.342;2023-07-29T04:41:59;7;7;
61592;PMS5003;70568;51.378;-1.342;2023-07-29T04:44:25;7;6;
61592;PMS5003;70568;51.378;-1.342;2023-07-29T04:46:51;7;4;
61592;PMS5003;70568;51.378;-1.342;2023-07-29T04:49:18;5;5;
61592;PMS5003;70568;51.378;-1.342;2023-07-29T04:51:44;6;5;
61592;PMS5003;70568;51.378;-1.342;2023-07-29T04:54:11;8;7;
61592;PMS5003;70568;51.378;-1.342;2023-07-29T04:56:38;4;4;
61592;PMS5003;70568;51.378;-1.342;2023-07-29T04:59:04;7;7;
61592;PMS5003;70568;51.378;-1.342;2023-07-29T05:01:31;5;5;
61592;PMS5003;70568;51.378;-1.342;2023-07-29T05:03:57;5;5;
61592;PMS5003;70568;51.378;-1.342;2023-07-29T05:06:24;6;6;
61592;PMS5003;70568;51.378;-1.342;2023-07-29T05:08:50;4;4;
61592;PMS5003;70568;51.378;-1.342;2023-07-29T05:11:16;5;5;
61592;PMS5003;70568;51.378;-1.342;2023-07-29T05:13:43;5;5;
61592;PMS5003;70568;51.378;-1.342;2023-07-29T05:16:10;8;8;
61592;PMS5003;70568;51.378;-1.342;2023-07-29T05:18:38;5;5;
61592;PMS5003;70568;51.378;-1.342;2023-07-29T05:21:04;7;7;
61592;PMS5003;70568;51.378;-1.342;2023-07-29T05:23:31;5;4;
61592;PMS5003;70568;51.378;-1.342;2023-07-29T05:25:57;5;5;
61592;PMS5003;70568;51.378;-1.342;2023-07-29T05:28:24;6;5;
61592;PMS5003;70568;51.378;-1.342;2023-07-29T05:30:50;6;5;
61592;PMS5003;70568;51.378;-1.342;2023-07-29T05:33:17;7;6;
61592;PMS5003;70568;51.378;-1.342;2023-07-29T05:35:43;5;5;
61592;PMS5003;70568;51.378;-1.342;2023-07-29T05:38:10;6;6;
61592;PMS5003;70568;51.378;-1.342;2023-07-29T05:40:37;4;3;
61592;PMS5003;70568;51.378;-1.342;2023-07-29T05:43:03;5;5;
61592;PMS5003;70568;51.378;-1.342;2023-07-29T05:45:30;5;5;
61592;PMS5003;70568;51.378;-1.342;2023-07-29T05:47:56;4;4;
61592;PMS5003;70568;51.378;-1.342;2023-07-29T05:50:22;5;5;
61592;PMS5003;70568;51.378;-1.342;2023-07-29T05:52:50;7;7;
61592;PMS5003;70568;51.378;-1.342;2023-07-29T05:55:16;4;4;
61592;PMS5003;70568;51.378;-1.342;2023-07-29T05:57:42;6;6;
61592;PMS5003;70568;51.378;-1.342;2023-07-29T06:00:09;6;6;
61592;PMS5003;70568;51.378;-1.342;2023-07-29T06:02:37;6;5;
61592;PMS5003;70568;51.378;-1.342;2023-07-29T06:05:04;6;5;
61592;PMS5003;70568;51.378;-1.342;2023-07-29T06:07:31;6;6;
61592;PMS5003;70568;51.378;-1.342;2023-07-29T06:09:57;5;5;
61592;PMS5003;70568;51.378;-1.342;2023-07-29T06:12:24;6;6;
61592;PMS5003;70568;51.378;-1.342;2023-07-29T06:14:50;7;6;
61592;PMS5003;70568;51.378;-1.342;2023-07-29T06:17:16;8;6;
61592;PMS5003;70568;51.378;-1.342;2023-07-29T06:19:43;4;4;
61592;PMS5003;70568;51.378;-1.342;2023-07-29T06:22:10;4;2;
61592;PMS5003;70568;51.378;-1.342;2023-07-29T06:24:37;4;4;
61592;PMS5003;70568;51.378;-1.342;2023-07-29T06:27:04;3;3;
61592;PMS5003;70568;51.378;-1.342;2023-07-29T06:29:31;5;4;
61592;PMS5003;70568;51.378;-1.342;2023-07-29T06:31:58;4;3;
61592;PMS5003;70568;51.378;-1.342;2023-07-29T06:34:25;5;5;
61592;PMS5003;70568;51.378;-1.342;2023-07-29T06:36:51;5;5;
61592;PMS5003;70568;51.378;-1.342;2023-07-29T06:39:18;6;6;
61592;PMS5003;70568;51.378;-1.342;2023-07-29T06:41:44;2;2;
61592;PMS5003;70568;51.378;-1.342;2023-07-29T06:44:11;4;4;
61592;PMS5003;70568;51.378;-1.342;2023-07-29T06:46:37;3;3;
61592;PMS5003;70568;51.378;-1.342;2023-07-29T06:49:05;2;2;
61592;PMS5003;70568;51.378;-1.342;2023-07-29T06:51:32;4;4;
61592;PMS5003;70568;51.378;-1.342;2023-07-29T06:53:58;4;4;
61592;PMS5003;70568;51.378;-1.342;2023-07-29T06:56:25;5;5;
61592;PMS5003;70568;51.378;-1.342;2023-07-29T06:58:52;4;4;
61592;PMS5003;70568;51.378;-1.342;2023-07-29T07:01:18;4;4;
61592;PMS5003;70568;51.378;-1.342;2023-07-29T07:03:44;5;4;
61592;PMS5003;70568;51.378;-1.342;2023-07-29T07:06:11;4;3;
61592;PMS5003;70568;51.378;-1.342;2023-07-29T07:08:38;4;4;
61592;PMS5003;70568;51.378;-1.342;2023-07-29T07:11:04;4;4;
61592;PMS5003;70568;51.378;-1.342;2023-07-29T07:13:31;5;5;
61592;PMS5003;70568;51.378;-1.342;2023-07-29T07:15:57;2;2;
61592;PMS5003;70568;51.378;-1.342;2023-07-29T07:18:23;4;4;
61592;PMS5003;70568;51.378;-1.342;2023-07-29T07:20:50;5;4;
61592;PMS5003;70568;51.378;-1.342;2023-07-29T07:23:17;4;4;
61592;PMS5003;70568;51.378;-1.342;2023-07-29T07:25:44;5;5;
61592;PMS5003;70568;51.378;-1.342;2023-07-29T07:28:11;8;5;
61592;PMS5003;70568;51.378;-1.342;2023-07-29T07:30:39;5;5;
61592;PMS5003;70568;51.378;-1.342;2023-07-29T07:33:07;6;5;
61592;PMS5003;70568;51.378;-1.342;2023-07-29T07:35:34;5;4;
61592;PMS5003;70568;51.378;-1.342;2023-07-29T07:38:01;4;4;
61592;PMS5003;70568;51.378;-1.342;2023-07-29T07:40:29;4;4;
61592;PMS5003;70568;51.378;-1.342;2023-07-29T07:42:56;7;6;
61592;PMS5003;70568;51.378;-1.342;2023-07-29T07:45:22;6;6;
61592;PMS5003;70568;51.378;-1.342;2023-07-29T07:47:49;5;5;
61592;PMS5003;70568;51.378;-1.342;2023-07-29T07:50:18;4;4;
61592;PMS5003;70568;51.378;-1.342;2023-07-29T07:52:44;4;4;
61592;PMS5003;70568;51.378;-1.342;2023-07-29T07:55:11;5;4;
61592;PMS5003;70568;51.378;-1.342;2023-07-29T07:57:38;5;4;
61592;PMS5003;70568;51.378;-1.342;2023-07-29T08:00:05;4;4;
61592;PMS5003;70568;51.378;-1.342;2023-07-29T08:02:32;6;6;
61592;PMS5003;70568;51.378;-1.342;2023-07-29T08:04:59;4;4;
61592;PMS5003;70568;51.378;-1.342;2023-07-29T08:07:25;5;4;
61592;PMS5003;70568;51.378;-1.342;2023-07-29T08:09:52;6;5;
61592;PMS5003;70568;51.378;-1.342;2023-07-29T08:12:18;5;5;
61592;PMS5003;70568;51.378;-1.342;2023-07-29T08:14:45;4;4;
61592;PMS5003;70568;51.378;-1.342;2023-07-29T08:17:12;7;6;
61592;PMS5003;70568;51.378;-1.342;2023-07-29T08:19:39;5;5;
61592;PMS5003;70568;51.378;-1.342;2023-07-29T08:22:05;4;4;
61592;PMS5003;70568;51.378;-1.342;2023-07-29T08:24:31;5;4;
61592;PMS5003;70568;51.378;-1.342;2023-07-29T08:26:58;4;4;
61592;PMS5003;70568;51.378;-1.342;2023-07-29T08:29:24;5;4;
61592;PMS5003;70568;51.378;-1.342;2023-07-29T08:31:51;4;4;
61592;PMS5003;70568;51.378;-1.342;2023-07-29T08:34:18;5;4;
61592;PMS5003;70568;51.378;-1.342;2023-07-29T08:36:44;5;5;
61592;PMS5003;70568;51.378;-1.342;2023-07-29T08:39:11;7;5;
61592;PMS5003;70568;51.378;-1.342;2023-07-29T08:41:40;4;4;
61592;PMS5003;70568;51.378;-1.342;2023-07-29T08:44:12;5;5;
61592;PMS5003;70568;51.378;-1.342;2023-07-29T08:46:44;4;4;
61592;PMS5003;70568;51.378;-1.342;2023-07-29T08:49:12;6;6;
61592;PMS5003;70568;51.378;-1.342;2023-07-29T08:51:39;6;6;
61592;PMS5003;70568;51.378;-1.342;2023-07-29T08:54:08;5;5;
61592;PMS5003;70568;51.378;-1.342;2023-07-29T08:56:37;5;5;
61592;PMS5003;70568;51.378;-1.342;2023-07-29T08:59:04;7;5;
61592;PMS5003;70568;51.378;-1.342;2023-07-29T09:01:31;5;5;
61592;PMS5003;70568;51.378;-1.342;2023-07-29T09:03:58;5;5;
61592;PMS5003;70568;51.378;-1.342;2023-07-29T09:06:25;3;3;
61592;PMS5003;70568;51.378;-1.342;2023-07-29T09:08:52;5;5;
61592;PMS5003;70568;51.378;-1.342;2023-07-29T09:11:20;2;2;
61592;PMS5003;70568;51.378;-1.342;2023-07-29T09:13:48;4;4;
61592;PMS5003;70568;51.378;-1.342;2023-07-29T09:16:15;4;2;
61592;PMS5003;70568;51.378;-1.342;2023-07-29T09:18:42;3;2;
61592;PMS5003;70568;51.378;-1.342;2023-07-29T09:21:09;3;2;
61592;PMS5003;70568;51.378;-1.342;2023-07-29T09:23:39;3;2;
61592;PMS5003;70568;51.378;-1.342;2023-07-29T09:26:07;4;3;
61592;PMS5003;70568;51.378;-1.342;2023-07-29T09:28:34;3;3;
61592;PMS5003;70568;51.378;-1.342;2023-07-29T09:31:03;3;3;
61592;PMS5003;70568;51.378;-1.342;2023-07-29T09:33:32;6;5;
61592;PMS5003;70568;51.378;-1.342;2023-07-29T09:36:00;4;4;
61592;PMS5003;70568;51.378;-1.342;2023-07-29T09:38:27;3;2;
61592;PMS5003;70568;51.378;-1.342;2023-07-29T09:40:55;3;2;
61592;PMS5003;70568;51.378;-1.342;2023-07-29T09:43:25;3;2;
61592;PMS5003;70568;51.378;-1.342;2023-07-29T09:45:55;3;3;
61592;PMS5003;70568;51.378;-1.342;2023-07-29T09:48:27;3;3;
61592;PMS5003;70568;51.378;-1.342;2023-07-29T09:50:54;5;4;
61592;PMS5003;70568;51.378;-1.342;2023-07-29T09:53:21;4;4;
61592;PMS5003;70568;51.378;-1.342;2023-07-29T09:55:48;1;1;
61592;PMS5003;70568;51.378;-1.342;2023-07-29T09:58:15;3;3;
61592;PMS5003;70568;51.378;-1.342;2023-07-29T10:00:46;3;3;
61592;PMS5003;70568;51.378;-1.342;2023-07-29T10:03:13;3;2;
61592;PMS5003;70568;51.378;-1.342;2023-07-29T10:05:41;3;2;
61592;PMS5003;70568;51.378;-1.342;2023-07-29T10:08:08;2;1;
61592;PMS5003;70568;51.378;-1.342;2023-07-29T10:10:36;2;2;
61592;PMS5003;70568;51.378;-1.342;2023-07-29T10:13:03;1;1;
61592;PMS5003;70568;51.378;-1.342;2023-07-29T10:15:31;4;3;
61592;PMS5003;70568;51.378;-1.342;2023-07-29T10:17:59;2;2;
61592;PMS5003;70568;51.378;-1.342;2023-07-29T10:20:27;4;3;
61592;PMS5003;70568;51.378;-1.342;2023-07-29T10:22:56;2;2;
61592;PMS5003;70568;51.378;-1.342;2023-07-29T10:25:35;3;3;
61592;PMS5003;70568;51.378;-1.342;2023-07-29T10:28:07;1;1;
61592;PMS5003;70568;51.378;-1.342;2023-07-29T10:30:34;2;1;
61592;PMS5003;70568;51.378;-1.342;2023-07-29T10:33:01;3;3;
61592;PMS5003;70568;51.378;-1.342;2023-07-29T10:35:29;1;1;
61592;PMS5003;70568;51.378;-1.342;2023-07-29T10:37:56;2;1;
61592;PMS5003;70568;51.378;-1.342;2023-07-29T10:40:23;3;2;
61592;PMS5003;70568;51.378;-1.342;2023-07-29T10:43:09;2;1;
61592;PMS5003;70568;51.378;-1.342;2023-07-29T10:45:38;1;1;
61592;PMS5003;70568;51.378;-1.342;2023-07-29T10:48:06;2;2;
61592;PMS5003;70568;51.378;-1.342;2023-07-29T10:50:36;2;2;
61592;PMS5003;70568;51.378;-1.342;2023-07-29T10:53:03;2;1;
61592;PMS5003;70568;51.378;-1.342;2023-07-29T10:55:31;2;2;
61592;PMS5003;70568;51.378;-1.342;2023-07-29T10:58:07;1;1;
61592;PMS5003;70568;51.378;-1.342;2023-07-29T11:00:37;2;2;
61592;PMS5003;70568;51.378;-1.342;2023-07-29T11:03:05;2;2;
61592;PMS5003;70568;51.378;-1.342;2023-07-29T11:05:49;1;1;
61592;PMS5003;70568;51.378;-1.342;2023-07-29T11:08:18;2;1;
61592;PMS5003;70568;51.378;-1.342;2023-07-29T11:10:57;3;3;
61592;PMS5003;70568;51.378;-1.342;2023-07-29T11:13:27;5;3;
61592;PMS5003;70568;51.378;-1.342;2023-07-29T11:15:55;1;1;
61592;PMS5003;70568;51.378;-1.342;2023-07-29T11:18:22;3;3;
61592;PMS5003;70568;51.378;-1.342;2023-07-29T11:20:49;3;2;
61592;PMS5003;70568;51.378;-1.342;2023-07-29T11:23:15;2;2;
61592;PMS5003;70568;51.378;-1.342;2023-07-29T11:25:42;4;3;
61592;PMS5003;70568;51.378;-1.342;2023-07-29T11:28:09;3;3;
61592;PMS5003;70568;51.378;-1.342;2023-07-29T11:30:38;3;2;
61592;PMS5003;70568;51.378;-1.342;2023-07-29T11:33:05;3;3;
61592;PMS5003;70568;51.378;-1.342;2023-07-29T11:35:31;2;2;
61592;PMS5003;70568;51.378;-1.342;2023-07-29T11:37:58;2;2;
61592;PMS5003;70568;51.378;-1.342;2023-07-29T11:40:25;1;1;
61592;PMS5003;70568;51.378;-1.342;2023-07-29T11:42:53;4;3;
61592;PMS5003;70568;51.378;-1.342;2023-07-29T11:45:21;3;3;
61592;PMS5003;70568;51.378;-1.342;2023-07-29T11:47:48;2;2;
61592;PMS5003;70568;51.378;-1.342;2023-07-29T11:50:16;3;3;
61592;PMS5003;70568;51.378;-1.342;2023-07-29T11:52:42;2;2;
61592;PMS5003;70568;51.378;-1.342;2023-07-29T11:55:12;2;1;
61592;PMS5003;70568;51.378;-1.342;2023-07-29T11:57:41;4;3;
61592;PMS5003;70568;51.378;-1.342;2023-07-29T12:00:10;4;3;
61592;PMS5003;70568;51.378;-1.342;2023-07-29T12:02:39;2;2;
61592;PMS5003;70568;51.378;-1.342;2023-07-29T12:05:08;3;3;
61592;PMS5003;70568;51.378;-1.342;2023-07-29T12:07:37;2;2;
61592;PMS5003;70568;51.378;-1.342;2023-07-29T12:10:05;2;2;
61592;PMS5003;70568;51.378;-1.342;2023-07-29T12:12:35;2;2;
61592;PMS5003;70568;51.378;-1.342;2023-07-29T12:15:07;0;0;
61592;PMS5003;70568;51.378;-1.342;2023-07-29T12:17:37;1;1;
61592;PMS5003;70568;51.378;-1.342;2023-07-29T12:20:08;0;0;
61592;PMS5003;70568;51.378;-1.342;2023-07-29T12:22:35;4;4;
61592;PMS5003;70568;51.378;-1.342;2023-07-29T12:25:02;2;2;
61592;PMS5003;70568;51.378;-1.342;2023-07-29T12:27:30;2;1;
61592;PMS5003;70568;51.378;-1.342;2023-07-29T12:29:57;2;2;
61592;PMS5003;70568;51.378;-1.342;2023-07-29T12:32:24;2;2;
61592;PMS5003;70568;51.378;-1.342;2023-07-29T12:34:53;3;2;
61592;PMS5003;70568;51.378;-1.342;2023-07-29T12:37:19;1;1;
61592;PMS5003;70568;51.378;-1.342;2023-07-29T12:39:46;1;1;
61592;PMS5003;70568;51.378;-1.342;2023-07-29T12:42:16;1;1;
61592;PMS5003;70568;51.378;-1.342;2023-07-29T12:44:43;2;2;
61592;PMS5003;70568;51.378;-1.342;2023-07-29T12:47:10;2;2;
61592;PMS5003;70568;51.378;-1.342;2023-07-29T12:49:37;3;3;
61592;PMS5003;70568;51.378;-1.342;2023-07-29T12:52:04;3;2;
61592;PMS5003;70568;51.378;-1.342;2023-07-29T12:54:32;6;4;
61592;PMS5003;70568;51.378;-1.342;2023-07-29T12:56:58;4;3;
61592;PMS5003;70568;51.378;-1.342;2023-07-29T12:59:25;2;2;
61592;PMS5003;70568;51.378;-1.342;2023-07-29T13:01:51;2;2;
61592;PMS5003;70568;51.378;-1.342;2023-07-29T13:04:17;4;3;
61592;PMS5003;70568;51.378;-1.342;2023-07-29T13:06:44;3;2;
61592;PMS5003;70568;51.378;-1.342;2023-07-29T13:09:11;2;2;
61592;PMS5003;70568;51.378;-1.342;2023-07-29T13:11:38;6;5;
61592;PMS5003;70568;51.378;-1.342;2023-07-29T13:14:05;3;3;
61592;PMS5003;70568;51.378;-1.342;2023-07-29T13:16:31;0;0;
61592;PMS5003;70568;51.378;-1.342;2023-07-29T13:18:57;2;2;
61592;PMS5003;70568;51.378;-1.342;2023-07-29T13:21:24;2;2;
61592;PMS5003;70568;51.378;-1.342;2023-07-29T13:23:51;4;2;
61592;PMS5003;70568;51.378;-1.342;2023-07-29T13:26:17;1;1;
61592;PMS5003;70568;51.378;-1.342;2023-07-29T13:28:44;2;2;
61592;PMS5003;70568;51.378;-1.342;2023-07-29T13:31:11;2;2;
61592;PMS5003;70568;51.378;-1.342;2023-07-29T13:33:38;4;2;
61592;PMS5003;70568;51.378;-1.342;2023-07-29T13:36:05;3;2;
61592;PMS5003;70568;51.378;-1.342;2023-07-29T13:38:31;2;1;
61592;PMS5003;70568;51.378;-1.342;2023-07-29T13:40:58;2;2;
61592;PMS5003;70568;51.378;-1.342;2023-07-29T13:43:25;3;3;
61592;PMS5003;70568;51.378;-1.342;2023-07-29T13:45:51;1;1;
61592;PMS5003;70568;51.378;-1.342;2023-07-29T13:48:18;1;1;
61592;PMS5003;70568;51.378;-1.342;2023-07-29T13:50:45;4;3;
61592;PMS5003;70568;51.378;-1.342;2023-07-29T13:53:12;3;3;
61592;PMS5003;70568;51.378;-1.342;2023-07-29T13:55:39;2;2;
61592;PMS5003;70568;51.378;-1.342;2023-07-29T13:58:05;3;2;
61592;PMS5003;70568;51.378;-1.342;2023-07-29T14:00:31;2;2;
61592;PMS5003;70568;51.378;-1.342;2023-07-29T14:02:58;1;1;
61592;PMS5003;70568;51.378;-1.342;2023-07-29T14:05:25;2;2;
61592;PMS5003;70568;51.378;-1.342;2023-07-29T14:07:51;1;1;
61592;PMS5003;70568;51.378;-1.342;2023-07-29T14:10:18;1;1;
61592;PMS5003;70568;51.378;-1.342;2023-07-29T14:12:44;1;1;
61592;PMS5003;70568;51.378;-1.342;2023-07-29T14:15:11;1;1;
61592;PMS5003;70568;51.378;-1.342;2023-07-29T14:17:38;4;3;
61592;PMS5003;70568;51.378;-1.342;2023-07-29T14:20:05;4;3;
61592;PMS5003;70568;51.378;-1.342;2023-07-29T14:22:33;2;2;
61592;PMS5003;70568;51.378;-1.342;2023-07-29T14:24:59;2;1;
61592;PMS5003;70568;51.378;-1.342;2023-07-29T14:27:26;2;2;
61592;PMS5003;70568;51.378;-1.342;2023-07-29T14:29:53;4;3;
61592;PMS5003;70568;51.378;-1.342;2023-07-29T14:32:20;1;1;
61592;PMS5003;70568;51.378;-1.342;2023-07-29T14:34:47;1;1;
61592;PMS5003;70568;51.378;-1.342;2023-07-29T14:37:13;1;1;
61592;PMS5003;70568;51.378;-1.342;2023-07-29T14:39:39;4;2;
61592;PMS5003;70568;51.378;-1.342;2023-07-29T14:42:06;3;2;
61592;PMS5003;70568;51.378;-1.342;2023-07-29T14:44:32;1;1;
61592;PMS5003;70568;51.378;-1.342;2023-07-29T14:46:58;2;2;
61592;PMS5003;70568;51.378;-1.342;2023-07-29T14:49:25;2;2;
61592;PMS5003;70568;51.378;-1.342;2023-07-29T14:51:53;3;2;
61592;PMS5003;70568;51.378;-1.342;2023-07-29T14:54:20;1;1;
61592;PMS5003;70568;51.378;-1.342;2023-07-29T14:56:47;3;3;
61592;PMS5003;70568;51.378;-1.342;2023-07-29T14:59:13;2;2;
61592;PMS5003;70568;51.378;-1.342;2023-07-29T15:01:39;2;2;
61592;PMS5003;70568;51.378;-1.342;2023-07-29T15:04:06;2;2;
61592;PMS5003;70568;51.378;-1.342;2023-07-29T15:06:32;6;4;
61592;PMS5003;70568;51.378;-1.342;2023-07-29T15:08:58;4;4;
61592;PMS5003;70568;51.378;-1.342;2023-07-29T15:11:25;2;2;
61592;PMS5003;70568;51.378;-1.342;2023-07-29T15:13:51;4;2;
61592;PMS5003;70568;51.378;-1.342;2023-07-29T15:16:17;3;2;
61592;PMS5003;70568;51.378;-1.342;2023-07-29T15:18:44;3;2;
61592;PMS5003;70568;51.378;-1.342;2023-07-29T15:21:11;3;3;
61592;PMS5003;70568;51.378;-1.342;2023-07-29T15:23:38;1;1;
61592;PMS5003;70568;51.378;-1.342;2023-07-29T15:26:06;3;2;
61592;PMS5003;70568;51.378;-1.342;2023-07-29T15:28:32;3;3;
61592;PMS5003;70568;51.378;-1.342;2023-07-29T15:30:58;3;3;
61592;PMS5003;70568;51.378;-1.342;2023-07-29T15:33:25;2;2;
61592;PMS5003;70568;51.378;-1.342;2023-07-29T15:35:52;2;2;
61592;PMS5003;70568;51.378;-1.342;2023-07-29T15:38:18;2;2;
61592;PMS5003;70568;51.378;-1.342;2023-07-29T15:40:44;4;3;
61592;PMS5003;70568;51.378;-1.342;2023-07-29T15:43:12;1;1;
61592;PMS5003;70568;51.378;-1.342;2023-07-29T15:45:39;5;5;
61592;PMS5003;70568;51.378;-1.342;2023-07-29T15:48:06;2;2;
61592;PMS5003;70568;51.378;-1.342;2023-07-29T15:50:32;3;2;
61592;PMS5003;70568;51.378;-1.342;2023-07-29T15:52:59;2;2;
61592;PMS5003;70568;51.378;-1.342;2023-07-29T15:55:25;2;2;
61592;PMS5003;70568;51.378;-1.342;2023-07-29T15:57:51;2;2;
61592;PMS5003;70568;51.378;-1.342;2023-07-29T16:00:19;2;2;
61592;PMS5003;70568;51.378;-1.342;2023-07-29T16:02:46;4;2;
61592;PMS5003;70568;51.378;-1.342;2023-07-29T16:05:13;3;2;
61592;PMS5003;70568;51.378;-1.342;2023-07-29T16:07:40;1;1;
61592;PMS5003;70568;51.378;-1.342;2023-07-29T16:10:08;2;1;
61592;PMS5003;70568;51.378;-1.342;2023-07-29T16:12:35;2;2;
61592;PMS5003;70568;51.378;-1.342;2023-07-29T16:15:01;3;3;
61592;PMS5003;70568;51.378;-1.342;2023-07-29T16:17:29;0;0;
61592;PMS5003;70568;51.378;-1.342;2023-07-29T16:19:56;2;2;
61592;PMS5003;70568;51.378;-1.342;2023-07-29T16:22:24;2;2;
61592;PMS5003;70568;51.378;-1.342;2023-07-29T16:24:50;2;2;
61592;PMS5003;70568;51.378;-1.342;2023-07-29T16:27:17;2;2;
61592;PMS5003;70568;51.378;-1.342;2023-07-29T16:29:45;2;1;
61592;PMS5003;70568;51.378;-1.342;2023-07-29T16:32:12;2;2;
61592;PMS5003;70568;51.378;-1.342;2023-07-29T16:34:39;3;2;